createdAt,value
2023-04-26T00:01:15.055Z,2.87
2023-04-26T00:03:44.069Z,3.13
2023-04-26T00:06:14.828Z,3.50
2023-04-26T00:08:44.146Z,3.60
2023-04-26T00:11:14.874Z,4.30
2023-04-26T00:13:46.380Z,5.23
2023-04-26T00:16:16.892Z,4.60
2023-04-26T00:18:46.497Z,3.50
2023-04-26T00:21:15.634Z,3.13
2023-04-26T00:23:44.524Z,4.00
2023-04-26T00:26:15.856Z,3.80
2023-04-26T00:28:45.097Z,4.07
2023-04-26T00:31:16.524Z,4.13
2023-04-26T00:33:45.520Z,4.40
2023-04-26T00:36:15.603Z,4.00
2023-04-26T00:38:44.214Z,3.17
2023-04-26T00:41:12.613Z,4.40
2023-04-26T00:43:42.805Z,4.00
2023-04-26T00:46:11.627Z,4.20
2023-04-26T00:48:40.422Z,7.73
2023-04-26T00:51:09.067Z,7.80
2023-04-26T00:53:38.009Z,8.00
2023-04-26T00:56:08.765Z,9.57
2023-04-26T00:58:38.299Z,17.57
2023-04-26T01:01:09.110Z,10.97
2023-04-26T01:03:38.146Z,5.33
2023-04-26T01:06:07.273Z,4.40
2023-04-26T01:08:36.068Z,4.50
2023-04-26T01:11:05.834Z,3.50
2023-04-26T01:13:34.785Z,3.80
2023-04-26T01:16:04.457Z,2.83
2023-04-26T01:18:34.212Z,2.40
2023-04-26T01:21:05.048Z,3.80
2023-04-26T01:23:35.385Z,4.00
2023-04-26T01:26:04.370Z,5.27
2023-04-26T01:28:33.136Z,5.40
2023-04-26T01:31:01.966Z,3.60
2023-04-26T01:33:31.768Z,3.00
2023-04-26T01:36:00.424Z,3.70
2023-04-26T01:38:30.816Z,4.40
2023-04-26T01:41:00.893Z,3.93
2023-04-26T01:43:29.884Z,3.33
2023-04-26T01:45:59.942Z,3.57
2023-04-26T01:48:28.766Z,3.47
2023-04-26T01:51:00.413Z,4.13
2023-04-26T01:53:29.155Z,3.50
2023-04-26T01:55:58.104Z,5.17
2023-04-26T01:58:28.076Z,4.90
2023-04-26T02:00:58.955Z,4.20
2023-04-26T02:03:27.681Z,4.00
2023-04-26T02:05:56.383Z,3.93
2023-04-26T02:08:25.500Z,3.00
2023-04-26T02:10:54.307Z,4.07
2023-04-26T02:13:25.074Z,3.07
2023-04-26T02:15:55.079Z,4.10
2023-04-26T02:18:23.988Z,3.27
2023-04-26T02:20:53.656Z,4.10
2023-04-26T02:23:22.534Z,3.87
2023-04-26T02:25:51.185Z,3.43
2023-04-26T02:28:20.034Z,3.37
2023-04-26T02:30:48.936Z,4.23
2023-04-26T02:33:19.275Z,3.33
2023-04-26T02:35:47.612Z,3.60
2023-04-26T02:38:16.251Z,3.43
2023-04-26T02:40:45.378Z,3.63
2023-04-26T02:43:14.401Z,3.87
2023-04-26T02:45:44.306Z,4.20
2023-04-26T02:48:13.117Z,3.40
2023-04-26T02:50:43.343Z,2.90
2023-04-26T02:53:12.844Z,2.90
2023-04-26T02:55:41.994Z,3.23
2023-04-26T02:58:14.006Z,3.60
2023-04-26T03:00:48.410Z,3.30
2023-04-26T03:03:18.264Z,2.97
2023-04-26T03:05:48.785Z,4.40
2023-04-26T03:08:17.491Z,3.50
2023-04-26T03:10:47.001Z,5.50
2023-04-26T03:13:15.393Z,5.57
2023-04-26T03:15:47.357Z,4.63
2023-04-26T03:18:15.656Z,5.10
2023-04-26T03:20:48.861Z,4.73
2023-04-26T03:23:17.592Z,4.30
2023-04-26T03:25:46.396Z,3.90
2023-04-26T03:28:16.869Z,3.27
2023-04-26T03:30:46.144Z,3.43
2023-04-26T03:33:14.997Z,3.70
2023-04-26T03:35:43.775Z,3.93
2023-04-26T03:38:13.927Z,3.50
2023-04-26T03:40:42.500Z,5.30
2023-04-26T03:43:11.086Z,4.90
2023-04-26T03:45:43.050Z,4.27
2023-04-26T03:48:11.509Z,5.30
2023-04-26T03:50:41.289Z,4.10
2023-04-26T03:53:10.134Z,5.30
2023-04-26T03:55:40.973Z,5.77
2023-04-26T03:58:09.539Z,5.53
2023-04-26T04:00:39.314Z,4.87
2023-04-26T04:03:09.158Z,4.03
2023-04-26T04:05:38.276Z,3.53
2023-04-26T04:08:07.165Z,4.27
2023-04-26T04:10:37.142Z,4.40
2023-04-26T04:13:07.240Z,10.40
2023-04-26T04:15:47.705Z,19.63
2023-04-26T04:18:17.200Z,29.53
2023-04-26T04:20:46.123Z,14.80
2023-04-26T04:23:14.875Z,19.60
2023-04-26T04:25:44.305Z,15.50
2023-04-26T04:28:14.918Z,14.67
2023-04-26T04:30:46.506Z,8.27
2023-04-26T04:33:15.306Z,5.80
2023-04-26T04:35:45.552Z,4.43
2023-04-26T04:38:14.743Z,3.60
2023-04-26T04:40:44.036Z,4.03
2023-04-26T04:43:15.774Z,3.00
2023-04-26T04:45:45.021Z,3.10
2023-04-26T04:48:13.772Z,4.07
2023-04-26T04:50:43.047Z,4.50
2023-04-26T04:53:12.941Z,4.37
2023-04-26T04:55:41.649Z,3.70
2023-04-26T04:58:10.483Z,3.73
2023-04-26T05:00:40.634Z,4.00
2023-04-26T05:03:10.434Z,4.30
2023-04-26T05:05:39.285Z,3.60
2023-04-26T05:08:09.211Z,6.40
2023-04-26T05:10:38.193Z,10.90
2023-04-26T05:13:06.892Z,14.77
2023-04-26T05:15:37.306Z,15.50
2023-04-26T05:18:07.504Z,15.10
2023-04-26T05:20:36.880Z,6.30
2023-04-26T05:23:09.591Z,4.00
2023-04-26T05:25:38.932Z,4.77
2023-04-26T05:28:12.904Z,3.40
2023-04-26T05:30:41.558Z,3.93
2023-04-26T05:33:12.004Z,3.10
2023-04-26T05:35:41.216Z,3.97
2023-04-26T05:38:10.147Z,3.47
2023-04-26T05:40:41.481Z,3.20
2023-04-26T05:43:10.436Z,3.53
2023-04-26T05:45:42.439Z,2.97
2023-04-26T05:48:12.824Z,2.80
2023-04-26T05:50:41.921Z,3.73
2023-04-26T05:53:10.724Z,3.17
2023-04-26T05:55:39.851Z,3.20
2023-04-26T05:58:08.832Z,3.57
2023-04-26T06:00:38.728Z,5.03
2023-04-26T06:03:07.974Z,3.80
2023-04-26T06:05:39.608Z,2.83
2023-04-26T06:08:08.474Z,3.97
2023-04-26T06:10:38.231Z,4.07
2023-04-26T06:13:07.248Z,5.10
2023-04-26T06:15:36.587Z,3.43
2023-04-26T06:18:06.943Z,2.97
2023-04-26T06:20:36.313Z,3.90
2023-04-26T06:23:07.295Z,4.27
2023-04-26T06:25:37.272Z,4.13
2023-04-26T06:28:06.456Z,4.23
2023-04-26T06:30:34.854Z,3.47
2023-04-26T06:33:03.775Z,6.10
2023-04-26T06:35:32.388Z,4.93
2023-04-26T06:38:01.413Z,6.20
2023-04-26T06:40:31.705Z,5.80
2023-04-26T06:43:00.054Z,2.97
2023-04-26T06:45:28.719Z,3.03
2023-04-26T06:47:57.640Z,2.27
2023-04-26T06:50:26.903Z,3.00
2023-04-26T06:52:55.459Z,2.90
2023-04-26T06:55:24.998Z,3.40
2023-04-26T06:57:55.709Z,3.50
2023-04-26T07:00:24.810Z,3.30
2023-04-26T07:02:53.514Z,4.73
2023-04-26T07:05:23.616Z,4.60
2023-04-26T07:07:52.311Z,2.60
2023-04-26T07:10:21.520Z,2.67
2023-04-26T07:12:50.309Z,2.60
2023-04-26T07:15:20.769Z,2.60
2023-04-26T07:17:49.220Z,2.60
2023-04-26T07:20:20.569Z,2.43
2023-04-26T07:22:49.423Z,2.50
2023-04-26T07:25:19.436Z,2.57
2023-04-26T07:27:47.783Z,2.90
2023-04-26T07:30:17.023Z,3.00
2023-04-26T07:32:46.846Z,2.10
2023-04-26T07:35:16.555Z,3.23
2023-04-26T07:37:45.276Z,3.03
2023-04-26T07:40:15.461Z,2.47
2023-04-26T07:42:44.351Z,2.33
2023-04-26T07:45:14.588Z,2.90
2023-04-26T07:47:43.341Z,2.73
2023-04-26T07:50:14.403Z,2.83
2023-04-26T07:52:43.512Z,3.10
2023-04-26T07:55:12.601Z,3.63
2023-04-26T07:57:41.999Z,2.60
2023-04-26T08:00:12.615Z,2.70
2023-04-26T08:02:44.923Z,2.83
2023-04-26T08:05:18.413Z,2.47
2023-04-26T08:07:47.447Z,2.43
2023-04-26T08:10:16.447Z,2.30
2023-04-26T08:12:45.522Z,2.20
2023-04-26T08:15:15.588Z,2.37
2023-04-26T08:17:44.556Z,2.67
2023-04-26T08:20:14.501Z,2.10
2023-04-26T08:22:44.498Z,2.50
2023-04-26T08:25:16.383Z,3.17
2023-04-26T08:27:45.029Z,2.47
2023-04-26T08:30:14.349Z,4.83
2023-04-26T08:32:44.299Z,2.70
2023-04-26T08:35:13.205Z,1.90
2023-04-26T08:37:43.567Z,3.00
2023-04-26T08:40:16.875Z,2.90
2023-04-26T08:42:45.552Z,2.40
2023-04-26T08:45:14.290Z,2.03
2023-04-26T08:47:46.777Z,2.67
2023-04-26T08:50:16.764Z,1.90
2023-04-26T08:52:46.179Z,2.40
2023-04-26T08:55:17.921Z,3.53
2023-04-26T08:57:48.483Z,2.20
2023-04-26T09:00:18.587Z,2.90
2023-04-26T09:02:49.347Z,3.10
2023-04-26T09:05:19.026Z,2.07
2023-04-26T09:07:49.227Z,2.00
2023-04-26T09:10:22.831Z,2.30
2023-04-26T09:12:53.819Z,2.80
2023-04-26T09:15:24.039Z,2.10
2023-04-26T09:17:53.186Z,2.20
2023-04-26T09:20:23.847Z,2.50
2023-04-26T09:22:54.786Z,2.50
2023-04-26T09:25:31.504Z,2.27
2023-04-26T09:28:00.989Z,3.07
2023-04-26T09:30:30.234Z,2.17
2023-04-26T09:33:00.957Z,3.10
2023-04-26T09:35:32.169Z,2.13
2023-04-26T09:38:07.969Z,2.20
2023-04-26T09:40:42.879Z,1.83
2023-04-26T09:43:13.019Z,2.10
2023-04-26T09:45:47.189Z,3.43
2023-04-26T09:48:22.439Z,2.50
2023-04-26T09:50:52.778Z,2.30
2023-04-26T09:53:31.220Z,2.23
2023-04-26T09:56:09.821Z,2.37
2023-04-26T09:58:40.033Z,2.33
2023-04-26T10:01:10.319Z,1.83
2023-04-26T10:03:39.673Z,2.03
2023-04-26T10:06:09.113Z,1.60
2023-04-26T10:08:41.147Z,1.70
2023-04-26T10:11:13.244Z,2.40
2023-04-26T10:13:45.068Z,2.00
2023-04-26T10:16:14.321Z,2.23
2023-04-26T10:18:43.290Z,2.00
2023-04-26T10:21:14.679Z,1.80
2023-04-26T10:23:44.076Z,2.10
2023-04-26T10:26:46.243Z,2.43
2023-04-26T10:29:17.200Z,2.20
2023-04-26T10:32:09.992Z,1.60
2023-04-26T10:34:38.733Z,1.83
2023-04-26T10:37:11.965Z,2.33
2023-04-26T10:39:41.130Z,1.53
2023-04-26T10:42:24.141Z,2.60
2023-04-26T10:44:56.109Z,1.97
2023-04-26T10:47:32.110Z,2.20
2023-04-26T10:50:06.308Z,3.30
2023-04-26T10:52:36.133Z,1.57
2023-04-26T10:55:06.561Z,2.13
2023-04-26T10:57:50.088Z,1.93
2023-04-26T11:00:30.858Z,2.00
2023-04-26T11:03:05.276Z,2.10
2023-04-26T11:05:56.470Z,1.70
2023-04-26T11:08:30.399Z,2.33
2023-04-26T11:11:10.559Z,2.20
2023-04-26T11:13:40.536Z,2.00
2023-04-26T11:16:11.683Z,2.47
2023-04-26T11:18:44.003Z,2.33
2023-04-26T11:21:15.504Z,2.23
2023-04-26T11:23:44.648Z,2.30
2023-04-26T11:26:13.325Z,1.80
2023-04-26T11:28:44.779Z,2.70
2023-04-26T11:31:15.563Z,2.77
2023-04-26T11:33:44.515Z,2.70
2023-04-26T11:36:14.491Z,2.27
2023-04-26T11:38:43.275Z,2.30
2023-04-26T11:41:12.101Z,2.17
2023-04-26T11:43:42.213Z,1.90
2023-04-26T11:46:11.148Z,2.87
2023-04-26T11:48:44.363Z,2.70
2023-04-26T11:51:13.418Z,2.80
2023-04-26T11:53:43.567Z,2.03
2023-04-26T11:56:17.612Z,2.40
2023-04-26T11:58:47.997Z,2.10
2023-04-26T12:01:23.710Z,2.03
2023-04-26T12:03:55.069Z,1.83
2023-04-26T12:06:31.251Z,1.60
2023-04-26T12:09:02.978Z,2.30
2023-04-26T12:11:31.506Z,3.10
2023-04-26T12:14:01.687Z,2.40
2023-04-26T12:16:30.764Z,2.33
2023-04-26T12:19:01.737Z,2.37
2023-04-26T12:21:31.214Z,3.10
2023-04-26T12:24:00.720Z,2.43
2023-04-26T12:26:44.483Z,1.90
2023-04-26T12:29:13.017Z,2.13
2023-04-26T12:31:42.130Z,2.80
2023-04-26T12:34:13.089Z,2.00
2023-04-26T12:36:43.523Z,2.37
2023-04-26T12:39:13.710Z,2.33
2023-04-26T12:41:42.678Z,2.30
2023-04-26T12:44:12.407Z,1.93
2023-04-26T12:46:44.050Z,2.00
2023-04-26T12:49:17.534Z,2.07
2023-04-26T12:51:46.441Z,2.07
2023-04-26T12:54:15.491Z,2.10
2023-04-26T12:56:45.459Z,1.80
2023-04-26T12:59:14.215Z,2.07
2023-04-26T13:01:45.535Z,1.80
2023-04-26T13:04:16.291Z,2.13
2023-04-26T13:06:46.142Z,1.87
2023-04-26T13:09:15.346Z,2.30
2023-04-26T13:11:44.878Z,1.97
2023-04-26T13:14:15.004Z,1.80
2023-04-26T13:16:44.308Z,2.13
2023-04-26T13:19:14.963Z,2.37
2023-04-26T13:21:43.647Z,2.27
2023-04-26T13:24:12.761Z,2.20
2023-04-26T13:26:41.233Z,1.97
2023-04-26T13:29:10.156Z,1.97
2023-04-26T13:31:40.139Z,1.87
2023-04-26T13:34:09.915Z,2.03
2023-04-26T13:36:40.332Z,2.03
2023-04-26T13:39:10.425Z,2.03
2023-04-26T13:41:39.154Z,1.97
2023-04-26T13:44:07.972Z,1.77
2023-04-26T13:46:37.035Z,1.60
2023-04-26T13:49:07.232Z,2.33
2023-04-26T13:51:35.826Z,1.77
2023-04-26T13:54:07.503Z,2.00
2023-04-26T13:56:36.573Z,1.63
2023-04-26T13:59:07.941Z,2.10
2023-04-26T14:01:37.855Z,1.60
2023-04-26T14:04:08.004Z,2.10
2023-04-26T14:06:37.462Z,1.50
2023-04-26T14:09:08.898Z,2.03
2023-04-26T14:11:38.085Z,1.80
2023-04-26T14:14:06.995Z,1.80
2023-04-26T14:16:36.607Z,2.13
2023-04-26T14:19:05.879Z,1.37
2023-04-26T14:21:34.778Z,1.60
2023-04-26T14:24:03.655Z,1.70
2023-04-26T14:26:37.650Z,1.63
2023-04-26T14:29:07.187Z,1.60
2023-04-26T14:31:36.055Z,1.70
2023-04-26T14:34:05.065Z,1.77
2023-04-26T14:36:34.072Z,1.20
2023-04-26T14:39:03.020Z,2.20
2023-04-26T14:41:31.662Z,1.90
2023-04-26T14:44:02.368Z,3.60
2023-04-26T14:46:35.207Z,8.27
2023-04-26T14:49:04.130Z,1.90
2023-04-26T14:51:33.507Z,2.00
2023-04-26T14:54:01.977Z,2.47
2023-04-26T14:56:35.046Z,1.40
2023-04-26T14:59:05.871Z,1.63
2023-04-26T15:01:35.191Z,1.93
2023-04-26T15:04:04.535Z,2.17
2023-04-26T15:06:34.356Z,1.83
2023-04-26T15:09:04.581Z,2.07
2023-04-26T15:11:34.116Z,3.20
2023-04-26T15:14:04.894Z,2.30
2023-04-26T15:16:33.838Z,2.20
2023-04-26T15:19:03.017Z,1.80
2023-04-26T15:21:32.027Z,1.20
2023-04-26T15:24:00.482Z,1.60
2023-04-26T15:26:31.238Z,1.93
2023-04-26T15:28:59.874Z,2.00
2023-04-26T15:31:33.280Z,2.20
2023-04-26T15:34:02.693Z,1.73
2023-04-26T15:36:32.123Z,1.57
2023-04-26T15:39:01.668Z,2.43
2023-04-26T15:41:30.533Z,2.00
2023-04-26T15:44:00.029Z,1.70
2023-04-26T15:46:31.146Z,1.60
2023-04-26T15:49:00.274Z,1.90
2023-04-26T15:51:29.314Z,1.60
2023-04-26T15:53:58.186Z,1.90
2023-04-26T15:56:27.454Z,1.30
2023-04-26T15:58:57.406Z,1.63
2023-04-26T16:01:26.224Z,1.70
2023-04-26T16:03:56.904Z,4.37
2023-04-26T16:06:25.990Z,1.73
2023-04-26T16:08:54.524Z,1.83
2023-04-26T16:11:23.525Z,2.00
2023-04-26T16:13:55.332Z,1.77
2023-04-26T16:16:26.894Z,1.57
2023-04-26T16:18:56.635Z,2.20
2023-04-26T16:21:29.438Z,2.10
2023-04-26T16:23:59.021Z,2.27
2023-04-26T16:26:28.093Z,1.50
2023-04-26T16:28:56.622Z,1.90
2023-04-26T16:31:28.791Z,2.10
2023-04-26T16:33:58.992Z,3.00
2023-04-26T16:36:28.735Z,5.10
2023-04-26T16:38:57.908Z,1.90
2023-04-26T16:41:28.157Z,3.63
2023-04-26T16:43:57.302Z,2.40
2023-04-26T16:46:26.509Z,3.70
2023-04-26T16:48:57.842Z,2.70
2023-04-26T16:51:28.009Z,2.67
2023-04-26T16:53:56.987Z,3.97
2023-04-26T16:56:26.155Z,2.40
2023-04-26T16:58:55.948Z,2.57
2023-04-26T17:01:25.057Z,3.47
2023-04-26T17:03:55.376Z,3.57
2023-04-26T17:06:24.770Z,2.63
2023-04-26T17:08:55.172Z,3.67
2023-04-26T17:11:24.811Z,2.70
2023-04-26T17:13:53.463Z,3.37
2023-04-26T17:16:22.799Z,4.10
2023-04-26T17:18:51.849Z,4.63
2023-04-26T17:21:20.771Z,4.67
2023-04-26T17:23:49.785Z,4.70
2023-04-26T17:26:20.353Z,5.27
2023-04-26T17:28:49.449Z,8.80
2023-04-26T17:31:18.856Z,15.47
2023-04-26T17:33:47.288Z,5.30
2023-04-26T17:36:16.761Z,2.27
2023-04-26T17:38:48.851Z,2.07
2023-04-26T17:41:19.872Z,1.80
2023-04-26T17:43:49.489Z,1.77
2023-04-26T17:46:18.840Z,1.90
2023-04-26T17:48:48.033Z,1.70
2023-04-26T17:51:17.221Z,1.73
2023-04-26T17:53:46.183Z,1.80
2023-04-26T17:56:15.380Z,1.90
2023-04-26T17:58:45.505Z,2.93
2023-04-26T18:01:14.717Z,3.23
2023-04-26T18:03:44.230Z,2.97
2023-04-26T18:06:13.973Z,2.67
2023-04-26T18:08:45.906Z,2.23
2023-04-26T18:11:18.768Z,1.90
2023-04-26T18:13:53.687Z,1.40
2023-04-26T18:16:24.599Z,2.13
2023-04-26T18:18:54.276Z,3.47
2023-04-26T18:21:23.346Z,3.10
2023-04-26T18:23:51.964Z,3.87
2023-04-26T18:26:20.793Z,2.63
2023-04-26T18:28:51.026Z,3.03
2023-04-26T18:31:22.271Z,2.60
2023-04-26T18:33:52.212Z,4.20
2023-04-26T18:36:20.657Z,3.67
2023-04-26T18:38:49.554Z,2.83
2023-04-26T18:41:18.118Z,2.80
2023-04-26T18:43:49.184Z,4.10
2023-04-26T18:46:19.158Z,5.47
2023-04-26T18:48:48.149Z,6.03
2023-04-26T18:51:16.635Z,5.30
2023-04-26T18:53:46.147Z,4.17
2023-04-26T18:56:14.670Z,5.20
2023-04-26T18:58:43.669Z,6.07
2023-04-26T19:01:12.830Z,5.20
2023-04-26T19:03:43.630Z,3.63
2023-04-26T19:06:15.322Z,3.50
2023-04-26T19:08:45.009Z,4.37
2023-04-26T19:11:14.145Z,5.00
2023-04-26T19:13:43.681Z,3.63
2023-04-26T19:16:12.592Z,2.40
2023-04-26T19:18:44.414Z,2.63
2023-04-26T19:21:13.587Z,2.07
2023-04-26T19:23:46.760Z,2.50
2023-04-26T19:26:16.102Z,2.47
2023-04-26T19:28:44.917Z,2.43
2023-04-26T19:31:14.642Z,2.63
2023-04-26T19:33:46.281Z,3.57
2023-04-26T19:36:15.113Z,3.90
2023-04-26T19:38:45.817Z,2.47
2023-04-26T19:41:15.156Z,2.53
2023-04-26T19:43:44.657Z,4.13
2023-04-26T19:46:13.993Z,7.37
2023-04-26T19:48:44.866Z,9.33
2023-04-26T19:51:17.686Z,10.10
2023-04-26T19:53:47.064Z,6.07
2023-04-26T19:56:16.119Z,3.20
2023-04-26T19:58:45.026Z,2.83
2023-04-26T20:01:14.024Z,3.80
2023-04-26T20:03:45.074Z,3.37
2023-04-26T20:06:15.962Z,5.70
2023-04-26T20:08:48.288Z,6.00
2023-04-26T20:11:17.887Z,2.27
2023-04-26T20:13:47.094Z,3.17
2023-04-26T20:16:16.354Z,2.80
2023-04-26T20:18:45.465Z,2.17
2023-04-26T20:21:15.909Z,2.97
2023-04-26T20:23:44.717Z,2.00
2023-04-26T20:26:13.580Z,2.20
2023-04-26T20:28:42.365Z,2.63
2023-04-26T20:31:11.153Z,2.90
2023-04-26T20:33:39.835Z,3.10
2023-04-26T20:36:09.300Z,2.20
2023-04-26T20:38:39.848Z,1.87
2023-04-26T20:41:08.465Z,2.00
2023-04-26T20:43:37.344Z,4.20
2023-04-26T20:46:08.837Z,4.77
2023-04-26T20:48:38.144Z,5.03
2023-04-26T20:51:07.326Z,3.70
2023-04-26T20:53:36.678Z,2.90
2023-04-26T20:56:07.119Z,2.53
2023-04-26T20:58:36.227Z,2.23
2023-04-26T21:01:07.359Z,2.30
2023-04-26T21:03:37.236Z,2.53
2023-04-26T21:06:08.530Z,2.10
2023-04-26T21:08:37.971Z,2.23
2023-04-26T21:11:08.231Z,2.40
2023-04-26T21:13:39.996Z,1.93
2023-04-26T21:16:10.472Z,2.30
2023-04-26T21:18:39.476Z,2.60
2023-04-26T21:21:08.164Z,2.00
2023-04-26T21:23:37.347Z,2.63
2023-04-26T21:26:07.970Z,2.40
2023-04-26T21:28:37.057Z,2.10
2023-04-26T21:31:07.027Z,2.00
2023-04-26T21:33:36.642Z,2.23
2023-04-26T21:36:06.642Z,2.00
2023-04-26T21:38:35.613Z,1.90
2023-04-26T21:41:04.445Z,2.10
2023-04-26T21:43:35.864Z,2.33
2023-04-26T21:46:05.023Z,2.60
2023-04-26T21:48:33.928Z,2.33
2023-04-26T21:51:03.004Z,1.67
2023-04-26T21:53:31.587Z,2.53
2023-04-26T21:56:00.789Z,2.30
2023-04-26T21:58:29.745Z,2.60
2023-04-26T22:01:08.546Z,2.37
2023-04-26T22:03:38.055Z,2.60
2023-04-26T22:06:07.381Z,2.10
2023-04-26T22:08:36.079Z,2.10
2023-04-26T22:11:04.878Z,2.43
2023-04-26T22:13:34.193Z,1.27
2023-04-26T22:16:04.695Z,2.77
2023-04-26T22:18:35.635Z,2.80
2023-04-26T22:21:04.744Z,4.10
2023-04-26T22:23:33.750Z,6.53
2023-04-26T22:26:02.418Z,8.67
2023-04-26T22:28:35.970Z,6.20
2023-04-26T22:31:06.474Z,6.70
2023-04-26T22:33:35.771Z,5.90
2023-04-26T22:36:05.869Z,4.83
2023-04-26T22:38:37.784Z,3.07
2023-04-26T22:41:07.935Z,2.50
2023-04-26T22:43:36.952Z,3.00
2023-04-26T22:46:07.340Z,2.20
2023-04-26T22:48:36.470Z,2.43
2023-04-26T22:51:05.318Z,2.80
2023-04-26T22:53:36.634Z,3.87
2023-04-26T22:56:06.178Z,2.17
2023-04-26T22:58:35.067Z,2.80
2023-04-26T23:01:04.046Z,1.60
2023-04-26T23:03:37.037Z,2.03
2023-04-26T23:06:07.104Z,2.13
2023-04-26T23:08:35.925Z,1.73
2023-04-26T23:11:08.756Z,2.10
2023-04-26T23:13:38.231Z,1.83
2023-04-26T23:16:07.685Z,2.17
2023-04-26T23:18:38.153Z,2.57
2023-04-26T23:21:07.676Z,2.77
2023-04-26T23:23:37.068Z,2.60
2023-04-26T23:26:08.480Z,2.60
2023-04-26T23:28:37.148Z,2.27
2023-04-26T23:31:05.517Z,2.00
2023-04-26T23:33:34.280Z,2.07
2023-04-26T23:36:04.502Z,2.10
2023-04-26T23:38:33.232Z,2.30
2023-04-26T23:41:01.690Z,2.50
2023-04-26T23:43:30.777Z,2.07
2023-04-26T23:45:59.242Z,2.63
2023-04-26T23:48:28.328Z,1.90
2023-04-26T23:50:56.917Z,1.53
2023-04-26T23:53:27.925Z,2.20
2023-04-26T23:55:56.791Z,1.83
2023-04-26T23:58:25.611Z,2.13
